createdAt,value
2017-07-29T00:00:40.302Z,1006.19
2017-07-29T00:01:40.284Z,1006.21
2017-07-29T00:02:40.274Z,1006.19
2017-07-29T00:03:40.262Z,1006.19
2017-07-29T00:04:40.244Z,1006.17
2017-07-29T00:05:40.222Z,1006.13
2017-07-29T00:06:40.212Z,1006.12
2017-07-29T00:07:40.190Z,1006.07
2017-07-29T00:08:40.181Z,1006.03
2017-07-29T00:09:40.164Z,1006.06
2017-07-29T00:10:40.141Z,1006.07
2017-07-29T00:11:40.132Z,1006.06
2017-07-29T00:12:40.114Z,1006
2017-07-29T00:13:40.096Z,1006.04
2017-07-29T00:14:40.082Z,1005.95
2017-07-29T00:15:40.063Z,1005.97
2017-07-29T00:16:40.046Z,1005.95
2017-07-29T00:17:40.030Z,1005.92
2017-07-29T00:18:40.010Z,1005.89
2017-07-29T00:19:40.000Z,1005.86
2017-07-29T00:20:39.983Z,1005.87
2017-07-29T00:21:39.969Z,1005.83
2017-07-29T00:22:39.952Z,1005.81
2017-07-29T00:23:39.934Z,1005.77
2017-07-29T00:24:39.918Z,1005.73
2017-07-29T00:25:39.902Z,1005.72
2017-07-29T00:26:39.885Z,1005.72
2017-07-29T00:27:39.869Z,1005.67
2017-07-29T00:28:39.851Z,1005.67
2017-07-29T00:29:39.841Z,1005.69
2017-07-29T00:30:39.822Z,1005.66
2017-07-29T00:31:39.801Z,1005.64
2017-07-29T00:32:39.786Z,1005.65
2017-07-29T00:33:39.770Z,1005.61
2017-07-29T00:34:39.752Z,1005.67
2017-07-29T00:35:39.740Z,1005.59
2017-07-29T00:36:39.717Z,1005.63
2017-07-29T00:37:39.702Z,1005.6
2017-07-29T00:38:39.685Z,1005.65
2017-07-29T00:39:39.670Z,1005.59
2017-07-29T00:40:39.654Z,1005.57
2017-07-29T00:41:39.640Z,1005.58
2017-07-29T00:42:39.622Z,1005.59
2017-07-29T00:43:39.603Z,1005.59
2017-07-29T00:44:39.589Z,1005.59
2017-07-29T00:45:39.570Z,1005.62
2017-07-29T00:46:39.558Z,1005.57
2017-07-29T00:47:39.536Z,1005.57
2017-07-29T00:48:39.522Z,1005.54
2017-07-29T00:49:39.504Z,1005.56
2017-07-29T00:50:39.489Z,1005.52
2017-07-29T00:51:39.472Z,1005.45
2017-07-29T00:52:39.472Z,1005.4
2017-07-29T00:53:39.440Z,1005.34
2017-07-29T00:54:39.421Z,1005.32
2017-07-29T00:55:39.419Z,1005.35
2017-07-29T00:56:39.392Z,1005.38
2017-07-29T00:57:39.374Z,1005.34
2017-07-29T00:58:39.362Z,1005.31
2017-07-29T00:59:39.349Z,1005.32
2017-07-29T01:00:39.327Z,1005.25
2017-07-29T01:01:39.309Z,1005.26
2017-07-29T01:02:39.296Z,1005.23
2017-07-29T01:03:39.280Z,1005.21
2017-07-29T01:04:39.262Z,1005.2
2017-07-29T01:05:39.244Z,1005.13
2017-07-29T01:06:39.226Z,1005.12
2017-07-29T01:07:39.212Z,1005.13
2017-07-29T01:08:39.198Z,1005.08
2017-07-29T01:09:39.183Z,1005.11
2017-07-29T01:10:39.159Z,1005.06
2017-07-29T01:11:39.145Z,1005.04
2017-07-29T01:12:39.131Z,1005.02
2017-07-29T01:13:39.113Z,1004.99
2017-07-29T01:14:39.097Z,1005.02
2017-07-29T01:15:39.082Z,1004.98
2017-07-29T01:16:39.061Z,1004.96
2017-07-29T01:17:39.056Z,1004.93
2017-07-29T01:18:39.032Z,1004.92
2017-07-29T01:19:39.019Z,1004.91
2017-07-29T01:20:38.997Z,1004.86
2017-07-29T01:21:38.982Z,1004.83
2017-07-29T01:22:38.964Z,1004.87
2017-07-29T01:23:38.951Z,1004.86
2017-07-29T01:24:38.933Z,1004.89
2017-07-29T01:25:38.916Z,1004.87
2017-07-29T01:26:38.901Z,1004.86
2017-07-29T01:27:38.881Z,1004.87
2017-07-29T01:28:38.872Z,1004.87
2017-07-29T01:29:38.862Z,1004.83
2017-07-29T01:30:38.831Z,1004.8
2017-07-29T01:31:38.821Z,1004.81
2017-07-29T01:32:38.798Z,1004.81
2017-07-29T01:33:38.816Z,1004.79
2017-07-29T01:34:38.771Z,1004.76
2017-07-29T01:35:38.752Z,1004.74
2017-07-29T01:36:38.735Z,1004.74
2017-07-29T01:37:38.717Z,1004.72
2017-07-29T01:38:38.700Z,1004.74
2017-07-29T01:39:38.691Z,1004.76
2017-07-29T01:40:38.669Z,1004.75
2017-07-29T01:41:38.651Z,1004.72
2017-07-29T01:42:38.641Z,1004.68
2017-07-29T01:43:38.622Z,1004.67
2017-07-29T01:44:38.602Z,1004.65
2017-07-29T01:45:38.589Z,1004.64
2017-07-29T01:46:38.573Z,1004.64
2017-07-29T01:47:38.581Z,1004.59
2017-07-29T01:48:38.535Z,1004.62
2017-07-29T01:49:38.522Z,1004.58
2017-07-29T01:50:38.503Z,1004.54
2017-07-29T01:51:38.490Z,1004.52
2017-07-29T01:52:38.472Z,1004.5
2017-07-29T01:53:38.461Z,1004.44
2017-07-29T01:54:38.443Z,1004.49
2017-07-29T01:55:38.424Z,1004.49
2017-07-29T01:56:38.410Z,1004.51
2017-07-29T01:57:38.487Z,1004.53
2017-07-29T01:58:38.373Z,1004.49
2017-07-29T01:59:38.455Z,1004.46
2017-07-29T02:00:38.343Z,1004.46
2017-07-29T02:01:38.319Z,1004.47
2017-07-29T02:02:38.306Z,1004.44
2017-07-29T02:03:38.337Z,1004.48
2017-07-29T02:04:38.273Z,1004.47
2017-07-29T02:05:38.263Z,1004.46
2017-07-29T02:06:38.239Z,1004.43
2017-07-29T02:07:38.224Z,1004.43
2017-07-29T02:08:38.212Z,1004.47
2017-07-29T02:09:38.192Z,1004.44
2017-07-29T02:10:38.170Z,1004.43
2017-07-29T02:11:38.154Z,1004.43
2017-07-29T02:12:38.139Z,1004.37
2017-07-29T02:13:38.122Z,1004.38
2017-07-29T02:14:38.105Z,1004.36
2017-07-29T02:15:38.093Z,1004.35
2017-07-29T02:16:38.073Z,1004.34
2017-07-29T02:17:38.064Z,1004.28
2017-07-29T02:18:38.041Z,1004.27
2017-07-29T02:19:38.032Z,1004.25
2017-07-29T02:20:38.012Z,1004.24
2017-07-29T02:21:37.992Z,1004.26
2017-07-29T02:22:37.983Z,1004.29
2017-07-29T02:23:37.962Z,1004.26
2017-07-29T02:24:37.942Z,1004.24
2017-07-29T02:25:37.924Z,1004.25
2017-07-29T02:26:37.911Z,1004.19
2017-07-29T02:27:37.899Z,1004.25
2017-07-29T02:28:37.882Z,1004.22
2017-07-29T02:29:37.862Z,1004.19
2017-07-29T02:30:37.854Z,1004.2
2017-07-29T02:31:37.834Z,1004.19
2017-07-29T02:32:37.815Z,1004.19
2017-07-29T02:33:37.801Z,1004.2
2017-07-29T02:34:37.783Z,1004.17
2017-07-29T02:35:37.771Z,1004.16
2017-07-29T02:36:37.752Z,1004.12
2017-07-29T02:37:37.735Z,1004.16
2017-07-29T02:38:37.721Z,1004.14
2017-07-29T02:39:37.700Z,1004.14
2017-07-29T02:40:37.684Z,1004.12
2017-07-29T02:41:37.668Z,1004.14
2017-07-29T02:42:37.652Z,1004.14
2017-07-29T02:43:37.637Z,1004.12
2017-07-29T02:44:37.624Z,1004.11
2017-07-29T02:45:37.609Z,1004.1
2017-07-29T02:46:37.589Z,1004.13
2017-07-29T02:47:37.572Z,1004.09
2017-07-29T02:48:37.555Z,1004.1
2017-07-29T02:49:37.542Z,1004.03
2017-07-29T02:50:37.521Z,1004.04
2017-07-29T02:51:37.512Z,1004.06
2017-07-29T02:52:37.491Z,1004.03
2017-07-29T02:53:37.477Z,1004.05
2017-07-29T02:54:37.462Z,1004.08
2017-07-29T02:55:37.441Z,1004.04
2017-07-29T02:56:37.430Z,1004.06
2017-07-29T02:57:37.413Z,1004
2017-07-29T02:58:37.400Z,1004.06
2017-07-29T02:59:37.381Z,1004.07
2017-07-29T03:00:37.371Z,1004.11
2017-07-29T03:01:37.352Z,1004.08
2017-07-29T03:02:37.333Z,1004.06
2017-07-29T03:03:37.326Z,1004.07
2017-07-29T03:04:37.302Z,1004.06
2017-07-29T03:05:37.281Z,1004.01
2017-07-29T03:06:37.269Z,1004.03
2017-07-29T03:07:37.251Z,1004.07
2017-07-29T03:08:37.241Z,1004.06
2017-07-29T03:09:37.221Z,1004.11
2017-07-29T03:10:37.212Z,1004.1
2017-07-29T03:11:37.190Z,1004.07
2017-07-29T03:12:37.173Z,1004.08
2017-07-29T03:13:37.163Z,1004.11
2017-07-29T03:14:37.142Z,1004.08
2017-07-29T03:15:37.131Z,1004.1
2017-07-29T03:16:37.116Z,1004.05
2017-07-29T03:17:37.095Z,1004.03
2017-07-29T03:18:37.081Z,1004
2017-07-29T03:19:37.072Z,1004.03
2017-07-29T03:20:37.051Z,1004
2017-07-29T03:21:37.033Z,1004.01
2017-07-29T03:22:37.020Z,1004.01
2017-07-29T03:23:37.004Z,1003.99
2017-07-29T03:24:36.992Z,1004.01
2017-07-29T03:25:36.971Z,1003.98
2017-07-29T03:26:36.963Z,1003.98
2017-07-29T03:27:36.943Z,1003.99
2017-07-29T03:28:36.928Z,1003.93
2017-07-29T03:29:36.913Z,1003.94
2017-07-29T03:30:36.891Z,1003.93
2017-07-29T03:31:36.881Z,1003.92
2017-07-29T03:32:36.862Z,1003.93
2017-07-29T03:33:36.849Z,1003.9
2017-07-29T03:34:36.831Z,1003.88
2017-07-29T03:35:36.821Z,1003.87
2017-07-29T03:36:36.798Z,1003.91
2017-07-29T03:37:36.789Z,1003.91
2017-07-29T03:38:36.772Z,1003.92
2017-07-29T03:39:36.760Z,1003.91
2017-07-29T03:40:36.741Z,1003.93
2017-07-29T03:41:36.723Z,1003.91
2017-07-29T03:42:36.713Z,1003.95
2017-07-29T03:43:36.693Z,1003.94
2017-07-29T03:44:36.681Z,1003.92
2017-07-29T03:45:36.661Z,1003.91
2017-07-29T03:46:36.650Z,1003.86
2017-07-29T03:47:36.628Z,1003.87
2017-07-29T03:48:36.621Z,1003.85
2017-07-29T03:49:36.600Z,1003.84
2017-07-29T03:50:36.589Z,1003.77
2017-07-29T03:51:36.571Z,1003.81
2017-07-29T03:52:36.562Z,1003.85
2017-07-29T03:53:36.541Z,1003.85
2017-07-29T03:54:36.532Z,1003.84
2017-07-29T03:55:36.510Z,1003.86
2017-07-29T03:56:36.490Z,1003.88
2017-07-29T03:57:36.478Z,1003.86
2017-07-29T03:58:36.489Z,1003.88
2017-07-29T03:59:36.452Z,1003.9
2017-07-29T04:00:36.441Z,1003.88
2017-07-29T04:01:36.415Z,1003.9
2017-07-29T04:02:36.422Z,1003.9
2017-07-29T04:03:36.390Z,1003.88
2017-07-29T04:04:36.371Z,1003.92
2017-07-29T04:05:36.360Z,1003.93
2017-07-29T04:06:36.346Z,1003.9
2017-07-29T04:07:36.332Z,1003.97
2017-07-29T04:08:36.368Z,1003.95
2017-07-29T04:09:36.300Z,1003.97
2017-07-29T04:10:36.281Z,1004.01
2017-07-29T04:11:36.267Z,1004.01
2017-07-29T04:12:36.252Z,1004.09
2017-07-29T04:13:36.241Z,1004
2017-07-29T04:14:36.221Z,1003.98
2017-07-29T04:15:36.212Z,1004.03
2017-07-29T04:16:36.194Z,1004.01
2017-07-29T04:17:36.182Z,1004
2017-07-29T04:18:36.162Z,1004.02
2017-07-29T04:19:36.151Z,1004.01
2017-07-29T04:20:36.130Z,1003.99
2017-07-29T04:21:36.122Z,1003.94
2017-07-29T04:22:36.101Z,1003.95
2017-07-29T04:23:36.087Z,1003.94
2017-07-29T04:24:36.071Z,1004
2017-07-29T04:25:36.061Z,1004
2017-07-29T04:26:36.040Z,1004.01
2017-07-29T04:27:36.033Z,1003.98
2017-07-29T04:28:36.009Z,1004.02
2017-07-29T04:29:36.000Z,1003.98
2017-07-29T04:30:35.978Z,1003.97
2017-07-29T04:31:35.974Z,1003.89
2017-07-29T04:32:35.953Z,1003.85
2017-07-29T04:33:35.937Z,1003.83
2017-07-29T04:34:35.922Z,1003.79
2017-07-29T04:35:35.913Z,1003.76
2017-07-29T04:36:35.889Z,1003.77
2017-07-29T04:37:35.876Z,1003.71
2017-07-29T04:38:35.861Z,1003.67
2017-07-29T04:39:35.847Z,1003.67
2017-07-29T04:40:35.831Z,1003.7
2017-07-29T04:41:35.810Z,1003.73
2017-07-29T04:42:35.799Z,1003.75
2017-07-29T04:43:35.783Z,1003.75
2017-07-29T04:44:35.766Z,1003.7
2017-07-29T04:45:35.753Z,1003.71
2017-07-29T04:46:35.741Z,1003.73
2017-07-29T04:47:35.723Z,1003.82
2017-07-29T04:48:35.722Z,1003.79
2017-07-29T04:49:35.691Z,1003.78
2017-07-29T04:50:35.683Z,1003.81
2017-07-29T04:51:35.660Z,1003.83
2017-07-29T04:52:35.648Z,1003.88
2017-07-29T04:53:35.632Z,1003.88
2017-07-29T04:54:35.615Z,1003.93
2017-07-29T04:55:35.602Z,1003.91
2017-07-29T04:56:35.589Z,1003.91
2017-07-29T04:57:35.570Z,1004
2017-07-29T04:58:35.554Z,1004.05
2017-07-29T04:59:35.542Z,1004.09
2017-07-29T05:00:35.525Z,1004.04
2017-07-29T05:01:35.511Z,1004.06
2017-07-29T05:02:35.501Z,1004.06
2017-07-29T05:03:35.483Z,1003.99
2017-07-29T05:04:35.466Z,1004.09
2017-07-29T05:05:35.452Z,1004.07
2017-07-29T05:06:35.438Z,1004.07
2017-07-29T05:07:35.420Z,1004.07
2017-07-29T05:08:35.411Z,1004.05
2017-07-29T05:09:35.393Z,1004.03
2017-07-29T05:10:35.379Z,1004.01
2017-07-29T05:11:35.362Z,1004.04
2017-07-29T05:12:35.351Z,1004.04
2017-07-29T05:13:35.327Z,1004.03
2017-07-29T05:14:35.315Z,1003.99
2017-07-29T05:15:35.301Z,1004.06
2017-07-29T05:16:35.286Z,1004.06
2017-07-29T05:17:35.270Z,1003.98
2017-07-29T05:18:35.255Z,1004.02
2017-07-29T05:19:35.240Z,1004.02
2017-07-29T05:20:35.226Z,1004.01
2017-07-29T05:21:35.210Z,1003.95
2017-07-29T05:22:35.203Z,1004.01
2017-07-29T05:23:35.191Z,1004.01
2017-07-29T05:24:35.170Z,1004.02
2017-07-29T05:25:35.154Z,1004.03
2017-07-29T05:26:35.145Z,1004
2017-07-29T05:27:35.129Z,1003.99
2017-07-29T05:28:35.112Z,1004.05
2017-07-29T05:29:35.097Z,1004.01
2017-07-29T05:30:35.082Z,1004.09
2017-07-29T05:31:35.065Z,1004.06
2017-07-29T05:32:35.053Z,1004.04
2017-07-29T05:33:35.040Z,1004
2017-07-29T05:34:35.024Z,1004.04
2017-07-29T05:35:35.009Z,1004.1
2017-07-29T05:36:34.997Z,1004.14
2017-07-29T05:37:34.979Z,1004.11
2017-07-29T05:38:34.971Z,1004.09
2017-07-29T05:39:34.950Z,1004.06
2017-07-29T05:40:34.942Z,1004.05
2017-07-29T05:41:34.925Z,1004.11
2017-07-29T05:42:34.911Z,1004.17
2017-07-29T05:43:34.900Z,1004.11
2017-07-29T05:44:34.882Z,1004.13
2017-07-29T05:45:34.867Z,1004.17
2017-07-29T05:46:34.851Z,1004.11
2017-07-29T05:47:34.843Z,1004.13
2017-07-29T05:48:34.820Z,1004.15
2017-07-29T05:49:34.812Z,1004.13
2017-07-29T05:50:34.795Z,1004.12
2017-07-29T05:51:34.780Z,1004.14
2017-07-29T05:52:34.761Z,1004.08
2017-07-29T05:53:34.750Z,1004.04
2017-07-29T05:54:34.737Z,1004.09
2017-07-29T05:55:34.722Z,1004.09
2017-07-29T05:56:34.713Z,1004.16
2017-07-29T05:57:34.693Z,1004.13
2017-07-29T05:58:34.681Z,1004.18
2017-07-29T05:59:34.716Z,1004.13
2017-07-29T06:00:34.655Z,1004.12
2017-07-29T06:01:34.637Z,1004.18
2017-07-29T06:02:34.622Z,1004.16
2017-07-29T06:03:34.710Z,1004.12
2017-07-29T06:04:34.593Z,1004.11
2017-07-29T06:05:34.581Z,1004.08
2017-07-29T06:06:34.566Z,1004.14
2017-07-29T06:07:34.551Z,1004.17
2017-07-29T06:08:34.535Z,1004.18
2017-07-29T06:09:34.581Z,1004.18
2017-07-29T06:10:34.514Z,1004.08
2017-07-29T06:11:34.498Z,1004.18
2017-07-29T06:12:34.480Z,1004.12
2017-07-29T06:13:34.470Z,1004.12
2017-07-29T06:14:34.456Z,1004.1
2017-07-29T06:15:34.443Z,1004.12
2017-07-29T06:16:34.425Z,1004.09
2017-07-29T06:17:34.415Z,1004.09
2017-07-29T06:18:34.401Z,1004.11
2017-07-29T06:19:34.386Z,1004.07
2017-07-29T06:20:34.371Z,1004.12
2017-07-29T06:21:34.361Z,1004.05
2017-07-29T06:22:34.345Z,1004.12
2017-07-29T06:23:34.331Z,1004.17
2017-07-29T06:24:34.317Z,1004.18
2017-07-29T06:25:34.307Z,1004.18
2017-07-29T06:26:34.291Z,1004.16
2017-07-29T06:27:34.276Z,1004.2
2017-07-29T06:28:34.266Z,1004.19
2017-07-29T06:29:34.252Z,1004.17
2017-07-29T06:30:34.249Z,1004.11
2017-07-29T06:31:34.223Z,1004.11
2017-07-29T06:32:34.212Z,1004.09
2017-07-29T06:33:34.197Z,1004.21
2017-07-29T06:34:34.183Z,1004.14
2017-07-29T06:35:34.170Z,1004.19
2017-07-29T06:36:34.161Z,1004.07
2017-07-29T06:37:34.143Z,1004.08
2017-07-29T06:38:34.133Z,1004.16
2017-07-29T06:39:34.120Z,1004.15
2017-07-29T06:40:34.108Z,1004.22
2017-07-29T06:41:34.090Z,1004.22
2017-07-29T06:42:34.077Z,1004.23
2017-07-29T06:43:34.066Z,1004.28
2017-07-29T06:44:34.049Z,1004.25
2017-07-29T06:45:34.042Z,1004.24
2017-07-29T06:46:34.031Z,1004.23
2017-07-29T06:47:34.013Z,1004.28
2017-07-29T06:48:34.002Z,1004.3
2017-07-29T06:49:33.989Z,1004.32
2017-07-29T06:50:33.974Z,1004.26
2017-07-29T06:51:33.961Z,1004.35
2017-07-29T06:52:33.950Z,1004.36
2017-07-29T06:53:33.935Z,1004.42
2017-07-29T06:54:33.922Z,1004.33
2017-07-29T06:55:33.911Z,1004.32
2017-07-29T06:56:33.895Z,1004.25
2017-07-29T06:57:33.890Z,1004.31
2017-07-29T06:58:33.872Z,1004.27
2017-07-29T06:59:34.464Z,1004.26
2017-07-29T07:00:33.857Z,1004.27
2017-07-29T07:01:33.836Z,1004.33
2017-07-29T07:02:33.824Z,1004.39
2017-07-29T07:03:33.812Z,1004.43
2017-07-29T07:04:33.805Z,1004.42
2017-07-29T07:05:33.784Z,1004.43
2017-07-29T07:06:33.773Z,1004.42
2017-07-29T07:07:33.763Z,1004.4
2017-07-29T07:08:33.747Z,1004.43
2017-07-29T07:09:33.738Z,1004.47
2017-07-29T07:10:33.723Z,1004.41
2017-07-29T07:11:33.714Z,1004.44
2017-07-29T07:12:33.693Z,1004.49
2017-07-29T07:13:33.683Z,1004.44
2017-07-29T07:14:33.674Z,1004.36
2017-07-29T07:15:33.656Z,1004.41
2017-07-29T07:16:33.644Z,1004.51
2017-07-29T07:17:33.631Z,1004.65
2017-07-29T07:18:33.623Z,1004.61
2017-07-29T07:19:33.615Z,1004.61
2017-07-29T07:20:33.603Z,1004.52
2017-07-29T07:21:33.584Z,1004.57
2017-07-29T07:22:33.574Z,1004.58
2017-07-29T07:23:33.572Z,1004.62
2017-07-29T07:24:33.594Z,1004.63
2017-07-29T07:25:33.533Z,1004.71
2017-07-29T07:26:33.522Z,1004.65
2017-07-29T07:27:33.515Z,1004.64
2017-07-29T07:28:33.543Z,1004.65
2017-07-29T07:29:33.483Z,1004.61
2017-07-29T07:30:33.474Z,1004.58
2017-07-29T07:31:33.465Z,1004.66
2017-07-29T07:32:33.500Z,1004.64
2017-07-29T07:33:33.433Z,1004.68
2017-07-29T07:34:33.423Z,1004.7
2017-07-29T07:35:33.406Z,1004.73
2017-07-29T07:36:33.391Z,1004.76
2017-07-29T07:37:33.382Z,1004.71
2017-07-29T07:38:33.368Z,1004.74
2017-07-29T07:39:33.353Z,1004.68
2017-07-29T07:40:33.343Z,1004.71
2017-07-29T07:41:33.332Z,1004.7
2017-07-29T07:42:33.319Z,1004.82
2017-07-29T07:43:33.302Z,1004.63
2017-07-29T07:44:33.292Z,1004.78
2017-07-29T07:45:33.282Z,1004.85
2017-07-29T07:46:33.271Z,1004.69
2017-07-29T07:47:33.259Z,1004.71
2017-07-29T07:48:33.240Z,1004.73
2017-07-29T07:49:33.228Z,1004.74
2017-07-29T07:50:33.217Z,1004.71
2017-07-29T07:51:33.202Z,1004.73
2017-07-29T07:52:33.199Z,1004.74
2017-07-29T07:53:33.181Z,1004.78
2017-07-29T07:54:33.173Z,1004.77
2017-07-29T07:55:33.151Z,1004.85
2017-07-29T07:56:33.146Z,1004.84
2017-07-29T07:57:33.132Z,1004.82
2017-07-29T07:58:33.121Z,1004.88
2017-07-29T07:59:33.112Z,1004.92
2017-07-29T08:00:33.091Z,1004.99
2017-07-29T08:01:33.077Z,1004.9
2017-07-29T08:02:33.069Z,1004.93
2017-07-29T08:03:33.058Z,1004.91
2017-07-29T08:04:33.045Z,1004.94
2017-07-29T08:05:33.032Z,1004.88
2017-07-29T08:06:33.019Z,1004.92
2017-07-29T08:07:33.012Z,1004.91
2017-07-29T08:08:32.993Z,1004.95
2017-07-29T08:09:32.978Z,1004.97
2017-07-29T08:10:32.966Z,1004.92
2017-07-29T08:11:32.960Z,1004.98
2017-07-29T08:12:32.942Z,1004.94
2017-07-29T08:13:32.930Z,1004.95
2017-07-29T08:14:32.921Z,1004.97
2017-07-29T08:15:32.900Z,1004.92
2017-07-29T08:16:32.897Z,1004.86
2017-07-29T08:17:32.879Z,1004.79
2017-07-29T08:18:32.870Z,1004.89
2017-07-29T08:19:32.850Z,1005
2017-07-29T08:20:32.839Z,1004.92
2017-07-29T08:21:32.831Z,1004.91
2017-07-29T08:22:32.816Z,1005
2017-07-29T08:23:32.812Z,1004.93
2017-07-29T08:24:32.793Z,1004.87
2017-07-29T08:25:32.883Z,1004.95
2017-07-29T08:26:32.767Z,1004.91
2017-07-29T08:27:32.751Z,1004.88
2017-07-29T08:28:32.745Z,1004.93
2017-07-29T08:29:32.773Z,1004.83
2017-07-29T08:30:32.716Z,1004.98
2017-07-29T08:31:32.712Z,1004.89
2017-07-29T08:32:32.691Z,1004.91
2017-07-29T08:33:32.682Z,1004.93
2017-07-29T08:34:32.689Z,1004.93
2017-07-29T08:35:32.699Z,1005.1
2017-07-29T08:36:32.642Z,1005.05
2017-07-29T08:37:32.627Z,1005.1
2017-07-29T08:38:32.614Z,1005.01
2017-07-29T08:39:32.599Z,1005.1
2017-07-29T08:40:32.587Z,1005.12
2017-07-29T08:41:32.577Z,1005.1
2017-07-29T08:42:32.570Z,1005.09
2017-07-29T08:43:32.550Z,1005.11
2017-07-29T08:44:32.540Z,1005.09
2017-07-29T08:45:32.528Z,1005.11
2017-07-29T08:46:32.517Z,1005.11
2017-07-29T08:47:32.502Z,1005.12
2017-07-29T08:48:32.498Z,1005.11
2017-07-29T08:49:32.480Z,1005.15
2017-07-29T08:50:32.467Z,1005.23
2017-07-29T08:51:32.460Z,1005.24
2017-07-29T08:52:32.440Z,1005.25
2017-07-29T08:53:32.427Z,1005.22
2017-07-29T08:54:32.417Z,1005.25
2017-07-29T08:55:32.402Z,1005.23
2017-07-29T08:56:32.389Z,1005.24
2017-07-29T08:57:32.380Z,1005.3
2017-07-29T08:58:32.368Z,1005.25
2017-07-29T08:59:32.350Z,1005.32
2017-07-29T09:00:32.342Z,1005.25
2017-07-29T09:01:32.331Z,1005.24
2017-07-29T09:02:32.321Z,1005.32
2017-07-29T09:03:32.300Z,1005.25
2017-07-29T09:04:32.289Z,1005.29
2017-07-29T09:05:32.278Z,1005.29
2017-07-29T09:06:32.271Z,1005.34
2017-07-29T09:07:32.250Z,1005.32
2017-07-29T09:08:32.242Z,1005.27
2017-07-29T09:09:32.226Z,1005.31
2017-07-29T09:10:32.216Z,1005.23
2017-07-29T09:11:32.212Z,1005.26
2017-07-29T09:12:32.192Z,1005.35
2017-07-29T09:13:32.179Z,1005.31
2017-07-29T09:14:32.172Z,1005.46
2017-07-29T09:15:32.151Z,1005.33
2017-07-29T09:16:32.145Z,1005.51
2017-07-29T09:17:32.132Z,1005.44
2017-07-29T09:18:32.123Z,1005.32
2017-07-29T09:19:32.112Z,1005.31
2017-07-29T09:20:32.090Z,1005.34
2017-07-29T09:21:32.080Z,1005.35
2017-07-29T09:22:32.070Z,1005.37
2017-07-29T09:23:32.061Z,1005.35
2017-07-29T09:24:32.051Z,1005.35
2017-07-29T09:25:32.030Z,1005.36
2017-07-29T09:26:32.021Z,1005.3
2017-07-29T09:27:32.018Z,1005.44
2017-07-29T09:28:31.997Z,1005.44
2017-07-29T09:29:32.005Z,1005.38
2017-07-29T09:30:31.969Z,1005.31
2017-07-29T09:31:31.967Z,1005.31
2017-07-29T09:32:31.952Z,1005.38
2017-07-29T09:33:31.936Z,1005.34
2017-07-29T09:34:31.932Z,1005.3
2017-07-29T09:35:31.909Z,1005.34
2017-07-29T09:36:31.901Z,1005.37
2017-07-29T09:37:31.891Z,1005.38
2017-07-29T09:38:31.881Z,1005.37
2017-07-29T09:39:31.873Z,1005.38
2017-07-29T09:40:31.852Z,1005.41
2017-07-29T09:41:31.839Z,1005.37
2017-07-29T09:42:31.826Z,1005.34
2017-07-29T09:43:31.826Z,1005.38
2017-07-29T09:44:31.802Z,1005.35
2017-07-29T09:45:31.792Z,1005.38
2017-07-29T09:46:31.779Z,1005.39
2017-07-29T09:47:31.769Z,1005.35
2017-07-29T09:48:31.765Z,1005.37
2017-07-29T09:49:31.754Z,1005.31
2017-07-29T09:50:31.734Z,1005.36
2017-07-29T09:51:31.720Z,1005.34
2017-07-29T09:52:31.711Z,1005.36
2017-07-29T09:53:31.699Z,1005.34
2017-07-29T09:54:31.691Z,1005.38
2017-07-29T09:55:31.680Z,1005.36
2017-07-29T09:56:31.661Z,1005.32
2017-07-29T09:57:31.651Z,1005.35
2017-07-29T09:58:31.641Z,1005.38
2017-07-29T09:59:31.624Z,1005.42
2017-07-29T10:00:31.622Z,1005.46
2017-07-29T10:01:31.600Z,1005.49
2017-07-29T10:02:31.589Z,1005.48
2017-07-29T10:03:31.578Z,1005.49
2017-07-29T10:04:31.563Z,1005.48
2017-07-29T10:05:31.549Z,1005.55
2017-07-29T10:06:31.550Z,1005.5
2017-07-29T10:07:31.539Z,1005.48
2017-07-29T10:08:31.522Z,1005.53
2017-07-29T10:09:31.512Z,1005.46
2017-07-29T10:10:31.497Z,1005.51
2017-07-29T10:11:31.479Z,1005.43
2017-07-29T10:12:31.469Z,1005.39
2017-07-29T10:13:31.462Z,1005.45
2017-07-29T10:14:31.474Z,1005.46
2017-07-29T10:15:31.438Z,1005.48
2017-07-29T10:16:31.419Z,1005.44
2017-07-29T10:17:31.408Z,1005.49
2017-07-29T10:18:31.408Z,1005.52
2017-07-29T10:19:31.393Z,1005.36
2017-07-29T10:20:31.376Z,1005.44
2017-07-29T10:21:31.367Z,1005.45
2017-07-29T10:22:31.354Z,1005.4
2017-07-29T10:23:31.344Z,1005.45
2017-07-29T10:24:31.331Z,1005.44
2017-07-29T10:25:31.323Z,1005.5
2017-07-29T10:26:31.312Z,1005.39
2017-07-29T10:27:31.304Z,1005.41
2017-07-29T10:28:31.286Z,1005.43
2017-07-29T10:29:31.280Z,1005.42
2017-07-29T10:30:31.272Z,1005.45
2017-07-29T10:31:31.261Z,1005.41
2017-07-29T10:32:31.246Z,1005.41
2017-07-29T10:33:31.240Z,1005.41
2017-07-29T10:34:31.221Z,1005.4
2017-07-29T10:35:31.215Z,1005.43
2017-07-29T10:36:31.204Z,1005.35
2017-07-29T10:37:31.201Z,1005.37
2017-07-29T10:38:31.182Z,1005.42
2017-07-29T10:39:31.175Z,1005.42
2017-07-29T10:40:31.162Z,1005.41
2017-07-29T10:41:31.154Z,1005.4
2017-07-29T10:42:31.143Z,1005.48
2017-07-29T10:43:31.209Z,1005.41
2017-07-29T10:44:31.110Z,1005.44
2017-07-29T10:45:31.101Z,1005.52
2017-07-29T10:46:31.093Z,1005.49
2017-07-29T10:47:31.084Z,1005.52
2017-07-29T10:48:31.066Z,1005.53
2017-07-29T10:49:31.099Z,1005.57
2017-07-29T10:50:31.053Z,1005.58
2017-07-29T10:51:31.090Z,1005.56
2017-07-29T10:52:31.030Z,1005.54
2017-07-29T10:53:31.062Z,1005.63
2017-07-29T10:54:31.003Z,1005.55
2017-07-29T10:55:31.042Z,1005.6
2017-07-29T10:56:30.980Z,1005.63
2017-07-29T10:57:30.964Z,1005.68
2017-07-29T10:58:30.981Z,1005.64
2017-07-29T10:59:30.943Z,1005.66
2017-07-29T11:00:30.927Z,1005.67
2017-07-29T11:01:30.922Z,1005.6
2017-07-29T11:02:30.913Z,1005.64
2017-07-29T11:03:30.902Z,1005.62
2017-07-29T11:04:30.881Z,1005.62
2017-07-29T11:05:30.872Z,1005.7
2017-07-29T11:06:30.862Z,1005.66
2017-07-29T11:07:30.847Z,1005.66
2017-07-29T11:08:30.848Z,1005.76
2017-07-29T11:09:30.832Z,1005.68
2017-07-29T11:10:30.816Z,1005.66
2017-07-29T11:11:30.802Z,1005.61
2017-07-29T11:12:30.787Z,1005.64
2017-07-29T11:13:30.782Z,1005.64
2017-07-29T11:14:30.771Z,1005.65
2017-07-29T11:15:30.751Z,1005.64
2017-07-29T11:16:30.741Z,1005.68
2017-07-29T11:17:30.731Z,1005.68
2017-07-29T11:18:30.720Z,1005.61
2017-07-29T11:19:30.710Z,1005.63
2017-07-29T11:20:30.701Z,1005.7
2017-07-29T11:21:30.680Z,1005.67
2017-07-29T11:22:30.671Z,1005.67
2017-07-29T11:23:30.660Z,1005.61
2017-07-29T11:24:30.648Z,1005.7
2017-07-29T11:25:30.641Z,1005.62
2017-07-29T11:26:30.632Z,1005.6
2017-07-29T11:27:30.623Z,1005.64
2017-07-29T11:28:30.608Z,1005.62
2017-07-29T11:29:30.590Z,1005.6
2017-07-29T11:30:30.574Z,1005.64
2017-07-29T11:31:30.570Z,1005.65
2017-07-29T11:32:30.556Z,1005.65
2017-07-29T11:33:30.547Z,1005.65
2017-07-29T11:34:30.535Z,1005.7
2017-07-29T11:35:30.521Z,1005.66
2017-07-29T11:36:30.510Z,1005.66
2017-07-29T11:37:30.498Z,1005.71
2017-07-29T11:38:30.492Z,1005.71
2017-07-29T11:39:30.472Z,1005.71
2017-07-29T11:40:30.460Z,1005.76
2017-07-29T11:41:30.451Z,1005.73
2017-07-29T11:42:30.442Z,1005.76
2017-07-29T11:43:30.433Z,1005.77
2017-07-29T11:44:30.418Z,1005.73
2017-07-29T11:45:30.412Z,1005.83
2017-07-29T11:46:30.399Z,1005.79
2017-07-29T11:47:30.385Z,1005.82
2017-07-29T11:48:30.369Z,1005.81
2017-07-29T11:49:30.362Z,1005.85
2017-07-29T11:50:30.349Z,1005.9
2017-07-29T11:51:30.340Z,1005.84
2017-07-29T11:52:30.327Z,1005.88
2017-07-29T11:53:30.313Z,1005.94
2017-07-29T11:54:30.302Z,1005.92
2017-07-29T11:55:30.289Z,1005.83
2017-07-29T11:56:30.282Z,1005.84
2017-07-29T11:57:30.269Z,1005.81
2017-07-29T11:58:30.256Z,1005.8
2017-07-29T11:59:30.254Z,1005.84
2017-07-29T12:00:30.240Z,1005.81
2017-07-29T12:01:30.225Z,1005.83
2017-07-29T12:02:30.211Z,1005.78
2017-07-29T12:03:30.200Z,1005.77
2017-07-29T12:04:30.190Z,1005.81
2017-07-29T12:05:30.181Z,1005.8
2017-07-29T12:06:30.171Z,1005.75
2017-07-29T12:07:30.163Z,1005.73
2017-07-29T12:08:30.150Z,1005.8